sensor_id;sensor_type;location;lat;lon;timestamp;P1;durP1;ratioP1;P2;durP2;ratioP2
1416;SDS011;703;51.162;13.574;2022-07-03T00:01:32;10.13;;;4.63;;
1416;SDS011;703;51.162;13.574;2022-07-03T00:03:58;11.50;;;5.40;;
1416;SDS011;703;51.162;13.574;2022-07-03T00:06:24;11.40;;;4.83;;
1416;SDS011;703;51.162;13.574;2022-07-03T00:08:51;12.23;;;5.70;;
1416;SDS011;703;51.162;13.574;2022-07-03T00:11:17;12.97;;;5.80;;
1416;SDS011;703;51.162;13.574;2022-07-03T00:13:43;14.40;;;6.00;;
1416;SDS011;703;51.162;13.574;2022-07-03T00:16:09;12.50;;;6.67;;
1416;SDS011;703;51.162;13.574;2022-07-03T00:18:35;11.07;;;5.60;;
1416;SDS011;703;51.162;13.574;2022-07-03T00:21:02;12.07;;;6.07;;
1416;SDS011;703;51.162;13.574;2022-07-03T00:23:30;11.90;;;5.73;;
1416;SDS011;703;51.162;13.574;2022-07-03T00:26:01;12.50;;;5.67;;
1416;SDS011;703;51.162;13.574;2022-07-03T00:28:29;11.70;;;5.77;;
1416;SDS011;703;51.162;13.574;2022-07-03T00:30:56;12.00;;;6.33;;
1416;SDS011;703;51.162;13.574;2022-07-03T00:33:23;13.23;;;5.57;;
1416;SDS011;703;51.162;13.574;2022-07-03T00:35:53;11.10;;;6.23;;
1416;SDS011;703;51.162;13.574;2022-07-03T00:38:21;11.77;;;6.80;;
1416;SDS011;703;51.162;13.574;2022-07-03T00:40:48;12.77;;;7.37;;
1416;SDS011;703;51.162;13.574;2022-07-03T00:43:15;13.07;;;6.70;;
1416;SDS011;703;51.162;13.574;2022-07-03T00:45:45;14.60;;;8.43;;
1416;SDS011;703;51.162;13.574;2022-07-03T00:48:17;14.07;;;5.90;;
1416;SDS011;703;51.162;13.574;2022-07-03T00:50:47;12.57;;;6.90;;
1416;SDS011;703;51.162;13.574;2022-07-03T00:53:17;12.37;;;6.60;;
1416;SDS011;703;51.162;13.574;2022-07-03T00:55:48;12.60;;;6.77;;
1416;SDS011;703;51.162;13.574;2022-07-03T00:58:15;11.97;;;6.23;;
1416;SDS011;703;51.162;13.574;2022-07-03T01:00:42;12.53;;;5.77;;
1416;SDS011;703;51.162;13.574;2022-07-03T01:03:12;11.80;;;6.63;;
1416;SDS011;703;51.162;13.574;2022-07-03T01:05:45;12.20;;;6.90;;
1416;SDS011;703;51.162;13.574;2022-07-03T01:16:51;12.30;;;6.33;;
1416;SDS011;703;51.162;13.574;2022-07-03T01:19:39;12.50;;;7.20;;
1416;SDS011;703;51.162;13.574;2022-07-03T01:24:56;11.73;;;6.83;;
1416;SDS011;703;51.162;13.574;2022-07-03T01:27:34;12.43;;;6.53;;
1416;SDS011;703;51.162;13.574;2022-07-03T01:30:10;12.13;;;6.53;;
1416;SDS011;703;51.162;13.574;2022-07-03T01:32:43;11.57;;;6.33;;
1416;SDS011;703;51.162;13.574;2022-07-03T01:35:20;11.20;;;6.40;;
1416;SDS011;703;51.162;13.574;2022-07-03T01:37:46;13.50;;;7.57;;
1416;SDS011;703;51.162;13.574;2022-07-03T01:40:15;12.83;;;6.40;;
1416;SDS011;703;51.162;13.574;2022-07-03T01:42:43;12.17;;;6.47;;
1416;SDS011;703;51.162;13.574;2022-07-03T01:45:12;13.60;;;7.10;;
1416;SDS011;703;51.162;13.574;2022-07-03T01:47:40;12.53;;;7.07;;
1416;SDS011;703;51.162;13.574;2022-07-03T01:50:08;13.50;;;7.77;;
1416;SDS011;703;51.162;13.574;2022-07-03T01:52:37;13.33;;;6.20;;
1416;SDS011;703;51.162;13.574;2022-07-03T01:55:05;12.97;;;7.53;;
1416;SDS011;703;51.162;13.574;2022-07-03T01:57:37;13.33;;;8.00;;
1416;SDS011;703;51.162;13.574;2022-07-03T02:00:17;12.77;;;7.40;;
1416;SDS011;703;51.162;13.574;2022-07-03T02:05:31;15.07;;;6.93;;
1416;SDS011;703;51.162;13.574;2022-07-03T02:08:04;12.13;;;6.40;;
1416;SDS011;703;51.162;13.574;2022-07-03T02:10:53;14.03;;;6.90;;
1416;SDS011;703;51.162;13.574;2022-07-03T02:16:49;12.77;;;7.53;;
1416;SDS011;703;51.162;13.574;2022-07-03T02:19:43;12.17;;;6.40;;
1416;SDS011;703;51.162;13.574;2022-07-03T02:22:24;11.50;;;6.40;;
1416;SDS011;703;51.162;13.574;2022-07-03T02:24:53;12.70;;;7.37;;
1416;SDS011;703;51.162;13.574;2022-07-03T02:27:25;13.20;;;7.23;;
1416;SDS011;703;51.162;13.574;2022-07-03T02:30:03;12.50;;;7.70;;
1416;SDS011;703;51.162;13.574;2022-07-03T02:32:35;14.00;;;6.60;;
1416;SDS011;703;51.162;13.574;2022-07-03T02:35:05;12.20;;;7.50;;
1416;SDS011;703;51.162;13.574;2022-07-03T02:37:38;14.13;;;7.20;;
1416;SDS011;703;51.162;13.574;2022-07-03T02:43:09;13.30;;;8.17;;
1416;SDS011;703;51.162;13.574;2022-07-03T02:45:45;12.60;;;7.77;;
1416;SDS011;703;51.162;13.574;2022-07-03T02:48:27;13.20;;;6.80;;
1416;SDS011;703;51.162;13.574;2022-07-03T02:51:01;17.40;;;8.37;;
1416;SDS011;703;51.162;13.574;2022-07-03T02:53:44;11.83;;;7.20;;
1416;SDS011;703;51.162;13.574;2022-07-03T02:56:23;12.90;;;7.20;;
1416;SDS011;703;51.162;13.574;2022-07-03T03:04:57;13.90;;;6.87;;
1416;SDS011;703;51.162;13.574;2022-07-03T03:07:27;12.47;;;7.50;;
1416;SDS011;703;51.162;13.574;2022-07-03T03:09:59;12.67;;;6.90;;
1416;SDS011;703;51.162;13.574;2022-07-03T03:12:31;15.10;;;7.80;;
1416;SDS011;703;51.162;13.574;2022-07-03T03:15:02;12.80;;;6.90;;
1416;SDS011;703;51.162;13.574;2022-07-03T03:17:35;12.80;;;6.53;;
1416;SDS011;703;51.162;13.574;2022-07-03T03:20:05;11.50;;;6.63;;
1416;SDS011;703;51.162;13.574;2022-07-03T03:25:08;13.53;;;8.10;;
1416;SDS011;703;51.162;13.574;2022-07-03T03:27:34;13.83;;;7.37;;
1416;SDS011;703;51.162;13.574;2022-07-03T03:30:00;13.27;;;8.27;;
1416;SDS011;703;51.162;13.574;2022-07-03T03:32:26;12.80;;;7.40;;
1416;SDS011;703;51.162;13.574;2022-07-03T03:34:52;14.80;;;7.00;;
1416;SDS011;703;51.162;13.574;2022-07-03T03:37:18;12.93;;;7.83;;
1416;SDS011;703;51.162;13.574;2022-07-03T03:39:44;13.77;;;7.67;;
1416;SDS011;703;51.162;13.574;2022-07-03T03:42:11;14.23;;;8.60;;
1416;SDS011;703;51.162;13.574;2022-07-03T03:44:36;13.60;;;7.73;;
1416;SDS011;703;51.162;13.574;2022-07-03T03:47:03;14.30;;;8.30;;
1416;SDS011;703;51.162;13.574;2022-07-03T03:49:29;13.00;;;7.53;;
1416;SDS011;703;51.162;13.574;2022-07-03T03:51:54;14.10;;;8.60;;
1416;SDS011;703;51.162;13.574;2022-07-03T03:54:21;13.43;;;7.93;;
1416;SDS011;703;51.162;13.574;2022-07-03T03:56:46;12.77;;;7.57;;
1416;SDS011;703;51.162;13.574;2022-07-03T03:59:12;13.80;;;8.30;;
1416;SDS011;703;51.162;13.574;2022-07-03T04:01:38;13.80;;;8.57;;
1416;SDS011;703;51.162;13.574;2022-07-03T04:04:04;12.30;;;7.47;;
1416;SDS011;703;51.162;13.574;2022-07-03T04:06:30;12.93;;;6.80;;
1416;SDS011;703;51.162;13.574;2022-07-03T04:08:56;13.83;;;7.13;;
1416;SDS011;703;51.162;13.574;2022-07-03T04:11:22;13.80;;;7.97;;
1416;SDS011;703;51.162;13.574;2022-07-03T04:13:48;13.67;;;7.50;;
1416;SDS011;703;51.162;13.574;2022-07-03T04:16:14;12.27;;;7.50;;
1416;SDS011;703;51.162;13.574;2022-07-03T04:18:39;13.27;;;7.63;;
1416;SDS011;703;51.162;13.574;2022-07-03T04:21:05;12.17;;;6.93;;
1416;SDS011;703;51.162;13.574;2022-07-03T04:23:31;13.00;;;7.80;;
1416;SDS011;703;51.162;13.574;2022-07-03T04:26:03;14.50;;;8.37;;
1416;SDS011;703;51.162;13.574;2022-07-03T04:28:30;14.37;;;7.83;;
1416;SDS011;703;51.162;13.574;2022-07-03T04:30:56;13.20;;;7.90;;
1416;SDS011;703;51.162;13.574;2022-07-03T04:33:21;13.20;;;7.87;;
1416;SDS011;703;51.162;13.574;2022-07-03T04:35:47;16.83;;;8.57;;
1416;SDS011;703;51.162;13.574;2022-07-03T04:38:13;12.87;;;7.60;;
1416;SDS011;703;51.162;13.574;2022-07-03T04:40:38;12.50;;;7.10;;
1416;SDS011;703;51.162;13.574;2022-07-03T04:43:04;12.90;;;7.57;;
1416;SDS011;703;51.162;13.574;2022-07-03T04:45:29;13.10;;;6.70;;
1416;SDS011;703;51.162;13.574;2022-07-03T04:47:55;12.03;;;6.73;;
1416;SDS011;703;51.162;13.574;2022-07-03T04:50:21;15.63;;;6.13;;
1416;SDS011;703;51.162;13.574;2022-07-03T04:52:46;11.70;;;6.00;;
1416;SDS011;703;51.162;13.574;2022-07-03T04:55:15;13.03;;;6.87;;
1416;SDS011;703;51.162;13.574;2022-07-03T04:57:40;13.27;;;7.27;;
1416;SDS011;703;51.162;13.574;2022-07-03T05:00:06;12.07;;;5.97;;
1416;SDS011;703;51.162;13.574;2022-07-03T05:02:33;14.27;;;5.93;;
1416;SDS011;703;51.162;13.574;2022-07-03T05:04:58;15.60;;;6.90;;
1416;SDS011;703;51.162;13.574;2022-07-03T05:07:24;49.47;;;6.30;;
1416;SDS011;703;51.162;13.574;2022-07-03T05:09:50;12.63;;;6.87;;
1416;SDS011;703;51.162;13.574;2022-07-03T05:12:16;12.17;;;6.50;;
1416;SDS011;703;51.162;13.574;2022-07-03T05:14:41;11.40;;;6.43;;
1416;SDS011;703;51.162;13.574;2022-07-03T05:17:07;13.10;;;6.67;;
1416;SDS011;703;51.162;13.574;2022-07-03T05:19:33;13.33;;;6.50;;
1416;SDS011;703;51.162;13.574;2022-07-03T05:21:59;12.73;;;6.03;;
1416;SDS011;703;51.162;13.574;2022-07-03T05:24:25;12.00;;;5.80;;
1416;SDS011;703;51.162;13.574;2022-07-03T05:26:50;11.63;;;5.80;;
1416;SDS011;703;51.162;13.574;2022-07-03T05:29:16;11.10;;;5.90;;
1416;SDS011;703;51.162;13.574;2022-07-03T05:31:42;11.50;;;5.90;;
1416;SDS011;703;51.162;13.574;2022-07-03T05:34:07;11.67;;;5.67;;
1416;SDS011;703;51.162;13.574;2022-07-03T05:36:33;11.40;;;5.90;;
1416;SDS011;703;51.162;13.574;2022-07-03T05:38:59;11.20;;;5.13;;
1416;SDS011;703;51.162;13.574;2022-07-03T05:41:43;11.90;;;6.00;;
1416;SDS011;703;51.162;13.574;2022-07-03T05:44:08;11.90;;;5.67;;
1416;SDS011;703;51.162;13.574;2022-07-03T05:46:34;11.10;;;5.17;;
1416;SDS011;703;51.162;13.574;2022-07-03T05:48:59;11.40;;;5.20;;
1416;SDS011;703;51.162;13.574;2022-07-03T05:51:25;11.97;;;6.07;;
1416;SDS011;703;51.162;13.574;2022-07-03T05:53:51;11.90;;;5.13;;
1416;SDS011;703;51.162;13.574;2022-07-03T05:56:16;12.20;;;6.17;;
1416;SDS011;703;51.162;13.574;2022-07-03T05:58:42;12.60;;;5.30;;
1416;SDS011;703;51.162;13.574;2022-07-03T06:01:07;11.97;;;5.83;;
1416;SDS011;703;51.162;13.574;2022-07-03T06:03:33;11.43;;;5.67;;
1416;SDS011;703;51.162;13.574;2022-07-03T06:05:59;10.50;;;5.23;;
1416;SDS011;703;51.162;13.574;2022-07-03T06:08:24;12.00;;;5.00;;
1416;SDS011;703;51.162;13.574;2022-07-03T06:10:50;11.40;;;4.90;;
1416;SDS011;703;51.162;13.574;2022-07-03T06:13:16;13.40;;;5.60;;
1416;SDS011;703;51.162;13.574;2022-07-03T06:15:41;12.63;;;5.13;;
1416;SDS011;703;51.162;13.574;2022-07-03T06:18:07;13.40;;;4.77;;
1416;SDS011;703;51.162;13.574;2022-07-03T06:20:32;11.03;;;5.20;;
1416;SDS011;703;51.162;13.574;2022-07-03T06:22:58;10.70;;;4.90;;
1416;SDS011;703;51.162;13.574;2022-07-03T06:25:24;11.10;;;5.10;;
1416;SDS011;703;51.162;13.574;2022-07-03T06:27:50;11.53;;;5.47;;
1416;SDS011;703;51.162;13.574;2022-07-03T06:30:16;10.60;;;4.80;;
1416;SDS011;703;51.162;13.574;2022-07-03T06:32:41;10.87;;;4.73;;
1416;SDS011;703;51.162;13.574;2022-07-03T06:35:07;13.90;;;4.40;;
1416;SDS011;703;51.162;13.574;2022-07-03T06:37:33;11.37;;;4.40;;
1416;SDS011;703;51.162;13.574;2022-07-03T06:39:58;12.00;;;4.60;;
1416;SDS011;703;51.162;13.574;2022-07-03T06:42:24;13.90;;;4.57;;
1416;SDS011;703;51.162;13.574;2022-07-03T06:44:50;11.67;;;5.43;;
1416;SDS011;703;51.162;13.574;2022-07-03T06:47:15;10.87;;;4.43;;
1416;SDS011;703;51.162;13.574;2022-07-03T06:49:41;11.03;;;4.20;;
1416;SDS011;703;51.162;13.574;2022-07-03T06:52:08;11.87;;;4.50;;
1416;SDS011;703;51.162;13.574;2022-07-03T06:54:34;11.87;;;5.20;;
1416;SDS011;703;51.162;13.574;2022-07-03T06:57:03;12.40;;;4.40;;
1416;SDS011;703;51.162;13.574;2022-07-03T06:59:29;10.70;;;4.40;;
1416;SDS011;703;51.162;13.574;2022-07-03T07:01:55;11.00;;;4.30;;
1416;SDS011;703;51.162;13.574;2022-07-03T07:04:20;11.30;;;5.10;;
1416;SDS011;703;51.162;13.574;2022-07-03T07:06:46;10.47;;;4.40;;
1416;SDS011;703;51.162;13.574;2022-07-03T07:09:11;11.63;;;4.43;;
1416;SDS011;703;51.162;13.574;2022-07-03T07:11:37;11.70;;;4.57;;
1416;SDS011;703;51.162;13.574;2022-07-03T07:14:02;10.60;;;4.40;;
1416;SDS011;703;51.162;13.574;2022-07-03T07:16:28;10.33;;;4.40;;
1416;SDS011;703;51.162;13.574;2022-07-03T07:18:54;9.90;;;3.73;;
1416;SDS011;703;51.162;13.574;2022-07-03T07:21:19;10.67;;;4.67;;
1416;SDS011;703;51.162;13.574;2022-07-03T07:23:45;10.37;;;4.40;;
1416;SDS011;703;51.162;13.574;2022-07-03T07:26:11;12.30;;;4.80;;
1416;SDS011;703;51.162;13.574;2022-07-03T07:28:37;11.50;;;4.47;;
1416;SDS011;703;51.162;13.574;2022-07-03T07:31:02;11.83;;;4.50;;
1416;SDS011;703;51.162;13.574;2022-07-03T07:33:28;11.50;;;4.60;;
1416;SDS011;703;51.162;13.574;2022-07-03T07:35:54;17.17;;;4.97;;
1416;SDS011;703;51.162;13.574;2022-07-03T07:38:20;9.80;;;4.00;;
1416;SDS011;703;51.162;13.574;2022-07-03T07:40:45;10.70;;;4.27;;
1416;SDS011;703;51.162;13.574;2022-07-03T07:43:11;10.20;;;4.30;;
1416;SDS011;703;51.162;13.574;2022-07-03T07:45:37;10.80;;;4.23;;
1416;SDS011;703;51.162;13.574;2022-07-03T07:48:03;10.73;;;3.90;;
1416;SDS011;703;51.162;13.574;2022-07-03T07:50:29;10.60;;;4.40;;
1416;SDS011;703;51.162;13.574;2022-07-03T07:52:55;11.13;;;4.23;;
1416;SDS011;703;51.162;13.574;2022-07-03T07:55:20;10.20;;;3.93;;
1416;SDS011;703;51.162;13.574;2022-07-03T07:57:46;11.07;;;4.13;;
1416;SDS011;703;51.162;13.574;2022-07-03T08:00:14;9.97;;;3.70;;
1416;SDS011;703;51.162;13.574;2022-07-03T08:02:41;10.73;;;4.23;;
1416;SDS011;703;51.162;13.574;2022-07-03T08:05:26;13.20;;;3.83;;
1416;SDS011;703;51.162;13.574;2022-07-03T08:08:09;13.63;;;4.50;;
1416;SDS011;703;51.162;13.574;2022-07-03T08:13:02;9.87;;;3.47;;
1416;SDS011;703;51.162;13.574;2022-07-03T08:15:28;11.17;;;3.67;;
1416;SDS011;703;51.162;13.574;2022-07-03T08:17:54;10.70;;;3.80;;
1416;SDS011;703;51.162;13.574;2022-07-03T08:20:20;9.60;;;3.20;;
1416;SDS011;703;51.162;13.574;2022-07-03T08:22:45;9.90;;;3.90;;
1416;SDS011;703;51.162;13.574;2022-07-03T08:25:11;10.30;;;4.20;;
1416;SDS011;703;51.162;13.574;2022-07-03T08:27:36;10.40;;;4.20;;
1416;SDS011;703;51.162;13.574;2022-07-03T08:30:02;13.13;;;4.33;;
1416;SDS011;703;51.162;13.574;2022-07-03T08:32:28;9.97;;;3.40;;
1416;SDS011;703;51.162;13.574;2022-07-03T08:35:00;10.60;;;3.33;;
1416;SDS011;703;51.162;13.574;2022-07-03T08:37:26;9.90;;;3.70;;
1416;SDS011;703;51.162;13.574;2022-07-03T08:39:52;14.13;;;3.30;;
1416;SDS011;703;51.162;13.574;2022-07-03T08:42:18;9.90;;;3.50;;
1416;SDS011;703;51.162;13.574;2022-07-03T08:44:45;9.47;;;3.17;;
1416;SDS011;703;51.162;13.574;2022-07-03T08:47:12;10.47;;;3.30;;
1416;SDS011;703;51.162;13.574;2022-07-03T08:49:38;10.17;;;3.57;;
1416;SDS011;703;51.162;13.574;2022-07-03T08:52:06;10.33;;;3.73;;
1416;SDS011;703;51.162;13.574;2022-07-03T08:54:32;10.50;;;3.33;;
1416;SDS011;703;51.162;13.574;2022-07-03T08:57:02;9.47;;;3.23;;
1416;SDS011;703;51.162;13.574;2022-07-03T08:59:37;9.37;;;2.40;;
1416;SDS011;703;51.162;13.574;2022-07-03T09:02:04;9.40;;;3.07;;
1416;SDS011;703;51.162;13.574;2022-07-03T09:04:33;10.13;;;3.30;;
1416;SDS011;703;51.162;13.574;2022-07-03T09:06:59;12.83;;;3.00;;
1416;SDS011;703;51.162;13.574;2022-07-03T09:09:26;10.30;;;3.30;;
1416;SDS011;703;51.162;13.574;2022-07-03T09:11:52;11.80;;;3.47;;
1416;SDS011;703;51.162;13.574;2022-07-03T09:14:18;10.37;;;2.90;;
1416;SDS011;703;51.162;13.574;2022-07-03T09:16:44;10.60;;;3.37;;
1416;SDS011;703;51.162;13.574;2022-07-03T09:19:10;9.33;;;3.10;;
1416;SDS011;703;51.162;13.574;2022-07-03T09:21:39;9.30;;;2.83;;
1416;SDS011;703;51.162;13.574;2022-07-03T09:24:06;9.73;;;2.90;;
1416;SDS011;703;51.162;13.574;2022-07-03T09:26:33;9.67;;;3.07;;
1416;SDS011;703;51.162;13.574;2022-07-03T09:28:59;9.93;;;3.13;;
1416;SDS011;703;51.162;13.574;2022-07-03T09:31:26;10.10;;;3.40;;
1416;SDS011;703;51.162;13.574;2022-07-03T09:34:03;9.60;;;2.80;;
1416;SDS011;703;51.162;13.574;2022-07-03T09:36:39;9.30;;;2.90;;
1416;SDS011;703;51.162;13.574;2022-07-03T09:44:32;9.40;;;3.03;;
1416;SDS011;703;51.162;13.574;2022-07-03T09:47:17;11.63;;;2.90;;
1416;SDS011;703;51.162;13.574;2022-07-03T09:52:27;9.90;;;3.00;;
1416;SDS011;703;51.162;13.574;2022-07-03T09:57:43;10.00;;;2.63;;
1416;SDS011;703;51.162;13.574;2022-07-03T10:00:25;12.43;;;2.73;;
1416;SDS011;703;51.162;13.574;2022-07-03T10:08:07;9.50;;;2.20;;
1416;SDS011;703;51.162;13.574;2022-07-03T10:10:37;8.90;;;2.67;;
1416;SDS011;703;51.162;13.574;2022-07-03T10:13:07;9.20;;;2.60;;
1416;SDS011;703;51.162;13.574;2022-07-03T10:15:33;8.77;;;2.77;;
1416;SDS011;703;51.162;13.574;2022-07-03T10:18:02;9.70;;;2.57;;
1416;SDS011;703;51.162;13.574;2022-07-03T10:23:08;9.10;;;2.53;;
1416;SDS011;703;51.162;13.574;2022-07-03T10:25:34;8.77;;;2.40;;
1416;SDS011;703;51.162;13.574;2022-07-03T10:28:00;9.17;;;2.77;;
1416;SDS011;703;51.162;13.574;2022-07-03T10:30:26;9.90;;;2.50;;
1416;SDS011;703;51.162;13.574;2022-07-03T10:32:53;11.20;;;2.30;;
1416;SDS011;703;51.162;13.574;2022-07-03T10:35:24;9.43;;;2.60;;
1416;SDS011;703;51.162;13.574;2022-07-03T10:43:48;9.10;;;2.50;;
1416;SDS011;703;51.162;13.574;2022-07-03T10:46:34;9.13;;;2.80;;
1416;SDS011;703;51.162;13.574;2022-07-03T10:54:15;8.90;;;2.70;;
1416;SDS011;703;51.162;13.574;2022-07-03T10:59:23;8.70;;;2.23;;
1416;SDS011;703;51.162;13.574;2022-07-03T11:02:28;8.97;;;2.40;;
1416;SDS011;703;51.162;13.574;2022-07-03T11:07:32;8.37;;;2.10;;
1416;SDS011;703;51.162;13.574;2022-07-03T11:25:50;9.47;;;2.70;;
1416;SDS011;703;51.162;13.574;2022-07-03T11:41:24;9.40;;;1.97;;
1416;SDS011;703;51.162;13.574;2022-07-03T11:43:57;8.57;;;2.47;;
1416;SDS011;703;51.162;13.574;2022-07-03T11:46:28;8.93;;;1.97;;
1416;SDS011;703;51.162;13.574;2022-07-03T11:49:07;8.50;;;2.23;;
1416;SDS011;703;51.162;13.574;2022-07-03T11:52:02;9.10;;;2.43;;
1416;SDS011;703;51.162;13.574;2022-07-03T11:54:30;8.73;;;1.87;;
1416;SDS011;703;51.162;13.574;2022-07-03T11:56:57;8.30;;;2.07;;
1416;SDS011;703;51.162;13.574;2022-07-03T11:59:24;8.60;;;2.17;;
1416;SDS011;703;51.162;13.574;2022-07-03T12:01:49;8.80;;;2.30;;
1416;SDS011;703;51.162;13.574;2022-07-03T12:04:16;12.50;;;2.60;;
1416;SDS011;703;51.162;13.574;2022-07-03T12:09:22;8.97;;;2.37;;
1416;SDS011;703;51.162;13.574;2022-07-03T12:17:21;8.80;;;2.33;;
1416;SDS011;703;51.162;13.574;2022-07-03T12:19:50;8.53;;;2.10;;
1416;SDS011;703;51.162;13.574;2022-07-03T12:22:30;9.20;;;2.30;;
1416;SDS011;703;51.162;13.574;2022-07-03T12:25:10;8.00;;;2.00;;
1416;SDS011;703;51.162;13.574;2022-07-03T12:27:41;8.50;;;2.10;;
1416;SDS011;703;51.162;13.574;2022-07-03T12:30:09;9.10;;;2.03;;
1416;SDS011;703;51.162;13.574;2022-07-03T12:32:47;7.97;;;1.60;;
1416;SDS011;703;51.162;13.574;2022-07-03T12:35:13;8.37;;;1.93;;
1416;SDS011;703;51.162;13.574;2022-07-03T12:37:45;8.27;;;1.93;;
1416;SDS011;703;51.162;13.574;2022-07-03T12:40:11;8.00;;;1.97;;
1416;SDS011;703;51.162;13.574;2022-07-03T12:42:42;9.20;;;2.07;;
1416;SDS011;703;51.162;13.574;2022-07-03T12:45:11;8.23;;;1.70;;
1416;SDS011;703;51.162;13.574;2022-07-03T12:47:37;8.87;;;2.00;;
1416;SDS011;703;51.162;13.574;2022-07-03T12:50:04;10.93;;;2.20;;
1416;SDS011;703;51.162;13.574;2022-07-03T12:52:31;8.17;;;1.93;;
1416;SDS011;703;51.162;13.574;2022-07-03T12:54:58;8.50;;;2.10;;
1416;SDS011;703;51.162;13.574;2022-07-03T12:57:26;8.60;;;1.77;;
1416;SDS011;703;51.162;13.574;2022-07-03T13:00:16;8.90;;;2.13;;
1416;SDS011;703;51.162;13.574;2022-07-03T13:02:47;8.20;;;1.70;;
1416;SDS011;703;51.162;13.574;2022-07-03T13:07:44;10.00;;;1.90;;
1416;SDS011;703;51.162;13.574;2022-07-03T13:10:14;8.00;;;1.70;;
1416;SDS011;703;51.162;13.574;2022-07-03T13:15:16;8.20;;;1.50;;
1416;SDS011;703;51.162;13.574;2022-07-03T13:20:22;8.10;;;1.70;;
1416;SDS011;703;51.162;13.574;2022-07-03T13:22:50;8.70;;;2.20;;
1416;SDS011;703;51.162;13.574;2022-07-03T13:25:16;8.27;;;1.80;;
1416;SDS011;703;51.162;13.574;2022-07-03T13:27:42;9.53;;;2.67;;
1416;SDS011;703;51.162;13.574;2022-07-03T13:30:10;8.30;;;2.23;;
1416;SDS011;703;51.162;13.574;2022-07-03T13:32:38;8.50;;;2.40;;
1416;SDS011;703;51.162;13.574;2022-07-03T13:35:04;8.60;;;2.30;;
1416;SDS011;703;51.162;13.574;2022-07-03T13:37:30;8.27;;;2.40;;
1416;SDS011;703;51.162;13.574;2022-07-03T13:39:56;8.37;;;2.43;;
1416;SDS011;703;51.162;13.574;2022-07-03T13:42:21;9.70;;;3.00;;
1416;SDS011;703;51.162;13.574;2022-07-03T13:44:47;10.27;;;4.73;;
1416;SDS011;703;51.162;13.574;2022-07-03T13:47:15;9.30;;;3.23;;
1416;SDS011;703;51.162;13.574;2022-07-03T13:49:40;9.23;;;3.97;;
1416;SDS011;703;51.162;13.574;2022-07-03T13:52:06;9.40;;;4.20;;
1416;SDS011;703;51.162;13.574;2022-07-03T13:54:32;9.57;;;4.33;;
1416;SDS011;703;51.162;13.574;2022-07-03T13:56:58;9.30;;;3.80;;
1416;SDS011;703;51.162;13.574;2022-07-03T13:59:24;8.80;;;3.83;;
1416;SDS011;703;51.162;13.574;2022-07-03T14:01:50;9.13;;;3.53;;
1416;SDS011;703;51.162;13.574;2022-07-03T14:04:16;9.30;;;3.60;;
1416;SDS011;703;51.162;13.574;2022-07-03T14:06:41;9.00;;;3.50;;
1416;SDS011;703;51.162;13.574;2022-07-03T14:09:07;8.60;;;3.20;;
1416;SDS011;703;51.162;13.574;2022-07-03T14:11:32;8.73;;;2.80;;
1416;SDS011;703;51.162;13.574;2022-07-03T14:13:58;9.13;;;3.43;;
1416;SDS011;703;51.162;13.574;2022-07-03T14:16:24;8.60;;;2.83;;
1416;SDS011;703;51.162;13.574;2022-07-03T14:18:49;9.33;;;3.60;;
1416;SDS011;703;51.162;13.574;2022-07-03T14:21:15;9.23;;;2.87;;
1416;SDS011;703;51.162;13.574;2022-07-03T14:23:40;11.83;;;2.93;;
1416;SDS011;703;51.162;13.574;2022-07-03T14:26:06;9.30;;;3.23;;
1416;SDS011;703;51.162;13.574;2022-07-03T14:28:32;8.60;;;3.30;;
1416;SDS011;703;51.162;13.574;2022-07-03T14:31:16;8.40;;;2.87;;
1416;SDS011;703;51.162;13.574;2022-07-03T14:33:51;8.47;;;2.93;;
1416;SDS011;703;51.162;13.574;2022-07-03T14:36:17;9.43;;;2.40;;
1416;SDS011;703;51.162;13.574;2022-07-03T14:38:43;8.23;;;2.57;;
1416;SDS011;703;51.162;13.574;2022-07-03T14:41:09;8.40;;;2.77;;
1416;SDS011;703;51.162;13.574;2022-07-03T14:43:35;8.60;;;2.60;;
1416;SDS011;703;51.162;13.574;2022-07-03T14:46:00;8.60;;;2.37;;
1416;SDS011;703;51.162;13.574;2022-07-03T14:48:26;10.20;;;2.50;;
1416;SDS011;703;51.162;13.574;2022-07-03T14:50:52;9.00;;;2.30;;
1416;SDS011;703;51.162;13.574;2022-07-03T14:53:18;8.40;;;2.20;;
1416;SDS011;703;51.162;13.574;2022-07-03T14:55:44;9.00;;;2.20;;
1416;SDS011;703;51.162;13.574;2022-07-03T14:58:18;7.93;;;1.90;;
1416;SDS011;703;51.162;13.574;2022-07-03T15:03:15;8.20;;;2.00;;
1416;SDS011;703;51.162;13.574;2022-07-03T15:05:50;8.60;;;2.20;;
1416;SDS011;703;51.162;13.574;2022-07-03T15:11:03;8.30;;;1.83;;
1416;SDS011;703;51.162;13.574;2022-07-03T15:13:32;8.10;;;1.90;;
1416;SDS011;703;51.162;13.574;2022-07-03T15:15:59;8.20;;;1.40;;
1416;SDS011;703;51.162;13.574;2022-07-03T15:18:25;9.60;;;2.23;;
1416;SDS011;703;51.162;13.574;2022-07-03T15:20:53;8.30;;;1.90;;
1416;SDS011;703;51.162;13.574;2022-07-03T15:23:19;9.20;;;1.70;;
1416;SDS011;703;51.162;13.574;2022-07-03T15:25:46;8.50;;;1.80;;
1416;SDS011;703;51.162;13.574;2022-07-03T15:28:13;8.57;;;1.93;;
1416;SDS011;703;51.162;13.574;2022-07-03T15:30:45;8.47;;;1.70;;
1416;SDS011;703;51.162;13.574;2022-07-03T15:33:14;8.07;;;1.80;;
1416;SDS011;703;51.162;13.574;2022-07-03T15:35:51;9.10;;;1.77;;
1416;SDS011;703;51.162;13.574;2022-07-03T15:38:24;8.10;;;1.63;;
1416;SDS011;703;51.162;13.574;2022-07-03T15:41:00;9.27;;;1.80;;
1416;SDS011;703;51.162;13.574;2022-07-03T15:54:22;8.30;;;1.70;;
1416;SDS011;703;51.162;13.574;2022-07-03T15:56:56;8.13;;;1.77;;
1416;SDS011;703;51.162;13.574;2022-07-03T15:59:26;8.30;;;2.00;;
1416;SDS011;703;51.162;13.574;2022-07-03T16:01:57;8.40;;;1.70;;
1416;SDS011;703;51.162;13.574;2022-07-03T16:04:48;8.83;;;1.90;;
1416;SDS011;703;51.162;13.574;2022-07-03T16:07:16;7.93;;;1.60;;
1416;SDS011;703;51.162;13.574;2022-07-03T16:09:43;10.70;;;1.60;;
1416;SDS011;703;51.162;13.574;2022-07-03T16:12:10;8.83;;;2.07;;
1416;SDS011;703;51.162;13.574;2022-07-03T16:14:48;8.63;;;2.07;;
1416;SDS011;703;51.162;13.574;2022-07-03T16:17:18;9.03;;;1.87;;
1416;SDS011;703;51.162;13.574;2022-07-03T16:19:47;8.70;;;1.80;;
1416;SDS011;703;51.162;13.574;2022-07-03T16:22:14;8.03;;;1.70;;
1416;SDS011;703;51.162;13.574;2022-07-03T16:24:41;10.00;;;2.17;;
1416;SDS011;703;51.162;13.574;2022-07-03T16:27:10;8.50;;;1.97;;
1416;SDS011;703;51.162;13.574;2022-07-03T16:29:41;8.13;;;1.60;;
1416;SDS011;703;51.162;13.574;2022-07-03T16:32:11;8.97;;;1.80;;
1416;SDS011;703;51.162;13.574;2022-07-03T16:34:42;8.90;;;2.00;;
1416;SDS011;703;51.162;13.574;2022-07-03T16:40:11;8.20;;;1.63;;
1416;SDS011;703;51.162;13.574;2022-07-03T16:42:40;8.10;;;1.77;;
1416;SDS011;703;51.162;13.574;2022-07-03T16:45:08;8.20;;;1.97;;
1416;SDS011;703;51.162;13.574;2022-07-03T16:50:35;8.33;;;1.80;;
1416;SDS011;703;51.162;13.574;2022-07-03T16:53:01;8.73;;;1.67;;
1416;SDS011;703;51.162;13.574;2022-07-03T16:55:27;9.73;;;2.10;;
1416;SDS011;703;51.162;13.574;2022-07-03T16:57:53;9.10;;;2.30;;
1416;SDS011;703;51.162;13.574;2022-07-03T17:00:21;8.50;;;2.40;;
1416;SDS011;703;51.162;13.574;2022-07-03T17:02:49;8.17;;;1.90;;
1416;SDS011;703;51.162;13.574;2022-07-03T17:05:16;9.03;;;2.03;;
1416;SDS011;703;51.162;13.574;2022-07-03T17:07:47;8.30;;;1.70;;
1416;SDS011;703;51.162;13.574;2022-07-03T17:10:15;8.10;;;1.43;;
1416;SDS011;703;51.162;13.574;2022-07-03T17:12:46;8.13;;;1.77;;
1416;SDS011;703;51.162;13.574;2022-07-03T17:15:15;8.57;;;1.83;;
1416;SDS011;703;51.162;13.574;2022-07-03T17:17:48;9.23;;;2.27;;
1416;SDS011;703;51.162;13.574;2022-07-03T17:20:22;10.03;;;2.03;;
1416;SDS011;703;51.162;13.574;2022-07-03T17:22:50;8.40;;;1.93;;
1416;SDS011;703;51.162;13.574;2022-07-03T17:25:25;9.00;;;2.13;;
1416;SDS011;703;51.162;13.574;2022-07-03T17:27:58;8.50;;;1.90;;
1416;SDS011;703;51.162;13.574;2022-07-03T17:30:33;8.90;;;2.40;;